Time;durP1;ratioP1;P1;durP2;ratioP2;P2;SDS_P1;SDS_P2;PMS_P1;PMS_P2;Temp;Humidity;BMP_temperature;BMP_pressure;BME280_temperature;BME280_humidity;BME280_pressure;Samples;Min_cycle;Max_cycle;Signal;HPM_P1;HPM_P2
2021/11/08 00:00:47;;;;;;;5.50;4.28;;;;;;;12.06;56.41;98662.19;3491898;28;20042;-73
2021/11/08 00:02:28;;;;;;;7.78;3.95;;;;;;;11.98;56.43;98637.44;3480114;28;20037;-73
2021/11/08 00:04:09;;;;;;;4.57;3.25;;;;;;;12.06;56.85;98651.50;3493318;28;20122;-72
2021/11/08 00:05:50;;;;;;;4.38;3.67;;;;;;;12.09;56.35;98643.84;3496008;28;20044;-74
2021/11/08 00:07:31;;;;;;;7.10;4.47;;;;;;;12.10;56.07;98656.13;3483051;28;20051;-73
2021/11/08 00:09:13;;;;;;;7.07;4.32;;;;;;;12.01;56.02;98652.19;3482852;28;20513;-73
2021/11/08 00:10:54;;;;;;;5.65;3.55;;;;;;;11.94;55.90;98646.13;3484183;28;20135;-73
2021/11/08 00:12:35;;;;;;;7.60;4.25;;;;;;;11.83;56.09;98644.22;3495704;28;20036;-72
2021/11/08 00:14:19;;;;;;;5.28;3.50;;;;;;;11.88;56.93;98641.72;3467953;28;20168;-73
2021/11/08 00:16:14;;;;;;;5.07;3.80;;;;;;;11.98;56.64;98663.34;3492278;28;20138;-73
2021/11/08 00:20:00;;;;;;;7.10;4.05;;;;;;;12.14;55.67;98635.94;3496627;28;20041;-73
2021/11/08 00:21:46;;;;;;;5.35;3.60;;;;;;;12.10;55.48;98637.44;3494619;28;20059;-73
2021/11/08 00:23:28;;;;;;;7.35;4.35;;;;;;;12.04;55.31;98633.03;3481245;28;20052;-73
2021/11/08 00:25:09;;;;;;;4.47;3.58;;;;;;;11.98;55.38;98631.28;3484130;28;20548;-73
2021/11/08 00:26:50;;;;;;;7.40;3.92;;;;;;;11.87;55.40;98626.72;3494658;28;20059;-73
2021/11/08 00:28:31;;;;;;;8.75;4.47;;;;;;;11.84;55.56;98630.63;3496880;28;20047;-72
2021/11/08 00:30:12;;;;;;;5.82;3.65;;;;;;;11.79;55.30;98625.97;3496654;28;20044;-73
2021/11/08 00:31:54;;;;;;;9.48;4.72;;;;;;;11.78;55.50;98620.88;3493739;28;20680;-72
2021/11/08 00:33:34;;;;;;;11.00;4.82;;;;;;;11.72;55.51;98625.28;3496357;28;20048;-74
2021/11/08 00:35:15;;;;;;;5.07;3.78;;;;;;;11.61;55.56;98628.72;3496563;28;20046;-72
2021/11/08 00:36:56;;;;;;;6.22;4.22;;;;;;;11.55;55.79;98619.75;3496629;28;20043;-73
2021/11/08 00:38:37;;;;;;;5.72;4.30;;;;;;;11.60;55.91;98618.28;3496064;28;20044;-74
2021/11/08 00:40:18;;;;;;;10.82;5.38;;;;;;;11.60;55.70;98624.41;3496325;28;20552;-73
2021/11/08 00:41:59;;;;;;;13.93;4.30;;;;;;;11.66;55.99;98615.50;3479865;28;20090;-73
2021/11/08 00:43:39;;;;;;;7.20;4.88;;;;;;;11.74;55.69;98612.50;3491976;28;20036;-72
2021/11/08 00:45:21;;;;;;;6.85;4.25;;;;;;;11.75;55.37;98610.66;3495236;28;20041;-71
2021/11/08 00:47:02;;;;;;;8.90;4.22;;;;;;;11.72;55.44;98603.09;3495563;28;20040;-72
2021/11/08 00:48:44;;;;;;;6.45;3.78;;;;;;;11.70;55.29;98619.34;3481190;28;20033;-71
2021/11/08 00:50:25;;;;;;;5.35;4.25;;;;;;;11.63;55.18;98605.28;3493546;28;20149;-71
2021/11/08 00:52:08;;;;;;;4.68;3.53;;;;;;;11.50;55.22;98592.94;3493192;28;20448;-72
2021/11/08 00:53:50;;;;;;;8.30;4.38;;;;;;;11.42;55.44;98595.94;3484075;28;20135;-73
2021/11/08 00:55:31;;;;;;;5.75;3.45;;;;;;;11.38;55.53;98596.63;3494453;28;20040;-72
2021/11/08 00:57:13;;;;;;;7.20;4.15;;;;;;;11.40;55.80;98597.19;3495915;28;20210;-72
2021/11/08 00:58:54;;;;;;;6.30;4.22;;;;;;;11.42;55.77;98592.47;3496067;28;20407;-73
2021/11/08 01:00:34;;;;;;;5.85;3.90;;;;;;;11.45;55.60;98610.69;3496109;28;20079;-72
2021/11/08 01:02:17;;;;;;;6.68;4.72;;;;;;;11.41;55.76;98596.16;3493363;28;20036;-72
2021/11/08 01:03:58;;;;;;;5.28;3.92;;;;;;;11.43;55.85;98591.41;3494188;28;20424;-73
2021/11/08 01:05:39;;;;;;;7.38;3.63;;;;;;;11.45;55.97;98584.00;3496186;28;20039;-71
2021/11/08 01:07:20;;;;;;;6.38;4.05;;;;;;;11.44;55.85;98585.84;3495916;28;20032;-71
2021/11/08 01:09:01;;;;;;;7.65;3.28;;;;;;;11.53;56.00;98597.00;3496160;28;20044;-71
2021/11/08 01:10:42;;;;;;;6.13;4.13;;;;;;;11.64;56.18;98592.75;3496433;28;20040;-71
2021/11/08 01:12:25;;;;;;;7.13;4.20;;;;;;;11.71;55.79;98588.13;3495024;28;20043;-71
2021/11/08 01:14:06;;;;;;;5.30;3.75;;;;;;;11.83;56.15;98586.31;3495430;28;20064;-72
2021/11/08 01:15:46;;;;;;;8.32;3.95;;;;;;;11.89;55.59;98582.72;3496145;28;20461;-71
2021/11/08 01:17:27;;;;;;;9.02;5.05;;;;;;;11.93;55.27;98580.44;3495820;28;20044;-70
2021/11/08 01:19:08;;;;;;;5.72;4.07;;;;;;;11.88;54.94;98578.44;3496192;28;21297;-72
2021/11/08 01:20:49;;;;;;;5.63;3.58;;;;;;;11.84;54.73;98576.44;3496323;28;20044;-71
2021/11/08 01:22:30;;;;;;;5.57;4.13;;;;;;;11.73;54.73;98564.69;3495256;28;20032;-72
2021/11/08 01:24:11;;;;;;;9.15;5.18;;;;;;;11.66;54.94;98559.44;3494944;28;20495;-72
2021/11/08 01:26:02;;;;;;;6.60;4.15;;;;;;;11.64;55.13;98564.22;3495784;28;20052;-73
2021/11/08 01:27:44;;;;;;;5.25;4.07;;;;;;;11.62;55.08;98558.28;3496092;28;20439;-73
2021/11/08 01:29:25;;;;;;;6.75;4.43;;;;;;;11.61;54.79;98562.00;3482481;28;20140;-71
2021/11/08 01:31:08;;;;;;;7.85;5.50;;;;;;;11.62;54.77;98562.81;3495665;28;20041;-72
2021/11/08 01:33:00;;;;;;;6.65;3.42;;;;;;;11.71;55.64;98548.91;3480410;28;20034;-72
2021/11/08 01:34:41;;;;;;;6.25;4.07;;;;;;;11.81;55.39;98544.84;3482935;28;20041;-73
2021/11/08 01:36:28;;;;;;;5.15;3.92;;;;;;;11.87;54.96;98552.78;3483766;28;20485;-72
2021/11/08 01:39:57;;;;;;;8.90;4.65;;;;;;;11.82;54.81;98541.13;3496271;28;20068;-73
2021/11/08 01:41:39;;;;;;;7.95;4.28;;;;;;;11.74;54.47;98540.41;3500568;28;20066;-74
2021/11/08 01:43:24;;;;;;;8.15;4.85;;;;;;;11.65;54.47;98531.16;3488743;28;20068;-73
2021/11/08 01:45:05;;;;;;;6.45;4.47;;;;;;;11.52;54.61;98534.84;3501022;28;20094;-72
2021/11/08 01:46:46;;;;;;;7.00;4.45;;;;;;;11.44;54.87;98534.38;3499446;28;20045;-72
2021/11/08 01:48:28;;;;;;;9.43;4.95;;;;;;;11.42;54.76;98525.78;3495873;28;20049;-72
2021/11/08 01:50:09;;;;;;;7.60;4.10;;;;;;;11.38;54.99;98545.94;3495676;28;20068;-72
2021/11/08 01:51:50;;;;;;;9.60;4.45;;;;;;;11.39;55.03;98552.91;3496018;28;20415;-72
2021/11/08 01:53:32;;;;;;;;;;;;;;;11.52;55.08;98542.03;3493442;28;20033;-73
2021/11/08 01:55:12;;;;;;;4.97;3.75;;;;;;;11.46;54.91;98534.91;3495456;28;19973;-72
2021/11/08 01:56:56;;;;;;;5.13;3.85;;;;;;;11.53;54.91;98539.13;3495805;28;20048;-70
2021/11/08 01:58:38;;;;;;;6.07;4.03;;;;;;;11.54;54.63;98529.28;3495914;28;20036;-71
2021/11/08 02:00:20;;;;;;;6.47;4.50;;;;;;;11.54;54.83;98523.94;3497685;28;20047;-71
2021/11/08 02:02:01;;;;;;;7.32;4.75;;;;;;;11.53;54.72;98517.78;3498603;28;20047;-70
2021/11/08 02:03:44;;;;;;;5.82;4.03;;;;;;;11.55;54.59;98528.22;3498213;28;20872;-72
2021/11/08 02:05:26;;;;;;;7.28;4.00;;;;;;;11.50;54.62;98515.56;3474281;28;20092;-72
2021/11/08 02:07:06;;;;;;;10.30;5.07;;;;;;;11.49;54.79;98510.47;3481819;28;20041;-71
2021/11/08 02:08:47;;;;;;;7.57;5.20;;;;;;;11.41;54.51;98500.13;3470034;28;20375;-72
2021/11/08 02:10:28;;;;;;;10.25;4.65;;;;;;;11.37;54.77;98512.31;3488842;28;20048;-71
2021/11/08 02:12:10;;;;;;;6.07;4.75;;;;;;;11.34;54.92;98510.91;3498219;28;20040;-73
2021/11/08 02:13:53;;;;;;;7.40;4.03;;;;;;;11.32;54.83;98521.78;3497569;28;20036;-71
2021/11/08 02:15:37;;;;;;;6.75;4.78;;;;;;;11.28;54.93;98509.13;3485278;28;20067;-71
2021/11/08 02:17:18;;;;;;;8.77;5.72;;;;;;;11.19;54.94;98505.97;3484535;28;20044;-75
2021/11/08 02:19:02;;;;;;;7.32;4.80;;;;;;;11.18;55.19;98508.88;3484320;28;20171;-72
2021/11/08 02:20:45;;;;;;;6.47;5.20;;;;;;;11.18;55.25;98507.03;3493238;28;20127;-73
2021/11/08 02:22:26;;;;;;;4.95;3.95;;;;;;;11.16;55.16;98514.44;3498086;28;20046;-73
2021/11/08 02:24:13;;;;;;;9.27;5.40;;;;;;;11.13;55.60;98506.91;3497854;28;20593;-72
2021/11/08 02:25:57;;;;;;;8.45;4.50;;;;;;;11.13;55.49;98507.72;3484245;28;20527;-73
2021/11/08 02:27:42;;;;;;;8.45;4.82;;;;;;;11.12;55.37;98494.59;3484296;28;20669;-73
2021/11/08 02:29:24;;;;;;;8.30;4.28;;;;;;;11.12;55.25;98494.59;3469587;28;20056;-71
2021/11/08 02:31:05;;;;;;;8.68;4.70;;;;;;;11.09;55.26;98487.88;3481732;28;20098;-71
2021/11/08 02:32:51;;;;;;;7.72;5.00;;;;;;;11.08;55.57;98491.59;3484204;28;20041;-72
2021/11/08 02:34:32;;;;;;;8.60;4.97;;;;;;;11.12;55.52;98489.25;3484699;28;20033;-73
2021/11/08 02:36:14;;;;;;;4.70;4.03;;;;;;;11.17;56.01;98483.25;3498105;28;20128;-72
2021/11/08 02:37:54;;;;;;;6.82;5.07;;;;;;;11.23;55.74;98485.84;3497837;28;20044;-73
2021/11/08 02:39:41;;;;;;;7.95;5.00;;;;;;;11.25;55.43;98475.72;3497810;28;20041;-73
2021/11/08 02:41:21;;;;;;;7.30;4.30;;;;;;;11.23;55.37;98477.84;3495986;28;20060;-71
2021/11/08 02:43:04;;;;;;;6.32;5.43;;;;;;;11.19;55.40;98481.97;3484451;28;20523;-72
2021/11/08 02:44:45;;;;;;;5.95;4.55;;;;;;;11.11;55.47;98480.44;3485382;28;20071;-72
2021/11/08 02:46:27;;;;;;;5.93;4.30;;;;;;;11.07;55.80;98481.13;3500048;28;20044;-73
2021/11/08 02:48:07;;;;;;;8.25;4.90;;;;;;;11.16;55.83;98476.31;3513762;28;20048;-72
2021/11/08 02:49:52;;;;;;;9.27;5.33;;;;;;;11.17;55.40;98469.91;3513565;28;20029;-72
2021/11/08 02:51:33;;;;;;;8.23;5.15;;;;;;;11.11;55.33;98474.31;3509459;28;20029;-72
2021/11/08 02:53:16;;;;;;;6.85;4.45;;;;;;;11.12;55.66;98478.59;3506510;28;20036;-74
2021/11/08 02:54:57;;;;;;;7.43;4.25;;;;;;;11.18;56.19;98472.38;3497742;28;20040;-74
2021/11/08 02:56:38;;;;;;;9.90;5.38;;;;;;;11.27;56.03;98464.84;3470800;28;20048;-74
2021/11/08 02:58:21;;;;;;;7.60;4.13;;;;;;;11.32;55.74;98468.44;3481079;28;20065;-73
2021/11/08 03:00:05;;;;;;;6.68;5.32;;;;;;;11.32;55.56;98462.31;3469252;28;20038;-73
2021/11/08 03:01:48;;;;;;;9.45;5.63;;;;;;;11.27;55.41;98454.16;3489822;28;20388;-73
2021/11/08 03:03:39;;;;;;;7.90;4.78;;;;;;;11.23;55.48;98447.66;3497666;28;20048;-73
2021/11/08 03:05:30;;;;;;;7.47;5.18;;;;;;;11.20;55.45;98454.25;3497612;28;20610;-72
2021/11/08 03:07:12;;;;;;;9.85;5.13;;;;;;;11.18;55.83;98453.69;3495640;28;20044;-73
2021/11/08 03:08:54;;;;;;;10.93;5.30;;;;;;;11.29;55.95;98479.56;3497625;28;20036;-73
2021/11/08 03:10:37;;;;;;;7.32;5.53;;;;;;;11.31;55.62;98450.81;3497436;28;20045;-72
2021/11/08 03:12:23;;;;;;;7.22;4.93;;;;;;;11.30;55.36;98459.84;3496993;28;20391;-72
2021/11/08 03:14:06;;;;;;;7.70;5.40;;;;;;;11.26;55.18;98457.91;3497443;28;20495;-71
2021/11/08 03:17:38;;;;;;;7.57;5.80;;;;;;;11.26;55.20;98444.56;3495763;28;20036;-71
2021/11/08 03:19:42;;;;;;;7.85;5.32;;;;;;;11.27;55.26;98459.50;3496987;28;20075;-73
2021/11/08 03:21:21;;;;;;;7.47;4.20;;;;;;;11.32;55.56;98455.09;3496390;28;20052;-71
2021/11/08 03:23:06;;;;;;;7.00;5.32;;;;;;;11.33;55.37;98448.75;3496826;28;20039;-71
2021/11/08 03:24:54;;;;;;;8.10;5.20;;;;;;;11.36;55.13;98447.47;3496956;28;20095;-74
2021/11/08 03:26:53;;;;;;;7.28;5.22;;;;;;;11.37;55.03;98446.41;3495483;28;20461;-71
2021/11/08 03:28:36;;;;;;;6.47;4.43;;;;;;;11.30;55.10;98435.84;3497469;28;20036;-71
2021/11/08 03:30:24;;;;;;;7.70;5.38;;;;;;;11.29;55.11;98436.91;3497531;28;20045;-72
2021/11/08 03:32:05;;;;;;;7.50;4.57;;;;;;;11.23;55.16;98437.81;3497662;28;20396;-73
2021/11/08 03:33:48;;;;;;;8.37;5.50;;;;;;;11.26;55.42;98433.88;3496592;28;20040;-72
2021/11/08 03:35:29;;;;;;;9.18;5.80;;;;;;;11.27;55.12;98438.97;3497338;28;20294;-72
2021/11/08 03:37:09;;;;;;;8.43;5.57;;;;;;;11.29;55.68;98434.22;3494511;28;20044;-73
2021/11/08 03:38:51;;;;;;;7.88;5.05;;;;;;;11.35;55.48;98429.81;3497242;28;20040;-72
2021/11/08 03:40:34;;;;;;;9.55;5.90;;;;;;;11.33;55.14;98426.56;3497057;28;20047;-71
2021/11/08 03:42:15;;;;;;;7.90;6.57;;;;;;;11.34;55.03;98418.34;3482810;28;20082;-74
2021/11/08 03:43:57;;;;;;;8.15;5.45;;;;;;;11.31;55.06;98429.47;3494882;28;20041;-74
2021/11/08 03:45:39;;;;;;;9.43;4.68;;;;;;;11.30;55.88;98417.16;3498243;28;21099;-73
2021/11/08 03:47:20;;;;;;;5.72;4.70;;;;;;;11.36;55.83;98412.78;3496102;28;20422;-74
2021/11/08 03:49:01;;;;;;;7.15;4.20;;;;;;;11.48;56.42;98405.59;3497557;28;20032;-73
2021/11/08 03:50:42;;;;;;;8.65;5.50;;;;;;;11.60;55.66;98410.94;3498186;28;20049;-75
2021/11/08 03:52:23;;;;;;;6.93;5.35;;;;;;;11.65;55.19;98408.38;3496510;28;20102;-73
2021/11/08 03:54:06;;;;;;;8.75;5.30;;;;;;;11.65;55.07;98412.91;3497168;28;20067;-75
2021/11/08 03:55:48;;;;;;;9.70;6.07;;;;;;;11.54;54.82;98412.69;3496949;28;20051;-72
2021/11/08 03:57:30;;;;;;;10.40;6.00;;;;;;;11.41;54.96;98412.06;3479875;28;20144;-75
2021/11/08 03:59:10;;;;;;;6.97;5.40;;;;;;;11.31;55.33;98402.81;3494442;28;20041;-72
2021/11/08 04:00:51;;;;;;;8.30;5.28;;;;;;;11.27;55.79;98401.63;3495256;28;20505;-71
2021/11/08 04:02:32;;;;;;;7.47;5.43;;;;;;;11.27;55.68;98404.31;3496054;28;20047;-74
2021/11/08 04:04:13;;;;;;;9.35;5.72;;;;;;;11.28;55.71;98413.94;3497125;28;20286;-73
2021/11/08 04:05:54;;;;;;;8.35;4.60;;;;;;;11.29;55.72;98396.09;3482463;28;20424;-73
2021/11/08 04:07:35;;;;;;;11.13;5.63;;;;;;;11.32;55.54;98396.41;3493638;28;20037;-74
2021/11/08 04:09:17;;;;;;;10.57;5.75;;;;;;;11.28;55.38;98391.78;3483262;28;20385;-72
2021/11/08 04:10:57;;;;;;;;;;;;;;;11.35;55.33;98395.94;3483467;28;20127;-74
2021/11/08 04:12:39;;;;;;;8.73;4.45;;;;;;;11.26;55.52;98384.03;3495908;28;19951;-71
2021/11/08 04:14:20;;;;;;;9.30;5.80;;;;;;;11.25;55.47;98382.38;3496755;28;20389;-74
2021/11/08 04:16:03;;;;;;;9.27;5.00;;;;;;;11.30;55.83;98385.16;3496368;28;20072;-71
2021/11/08 04:17:45;;;;;;;7.43;5.30;;;;;;;11.34;55.79;98388.19;3493261;28;20044;-73
2021/11/08 04:19:29;;;;;;;9.00;5.25;;;;;;;11.33;55.66;98384.72;3482424;28;20052;-71
2021/11/08 04:21:10;;;;;;;9.25;4.80;;;;;;;11.34;55.74;98385.53;3483077;28;20036;-72
2021/11/08 04:22:53;;;;;;;10.57;5.60;;;;;;;11.41;56.08;98378.22;3495698;28;20071;-73
2021/11/08 04:24:34;;;;;;;10.57;5.13;;;;;;;11.47;55.51;98377.28;3496163;28;20044;-72
2021/11/08 04:26:19;;;;;;;8.27;5.60;;;;;;;11.49;55.65;98377.88;3496875;28;20153;-72
2021/11/08 04:28:00;;;;;;;9.40;5.65;;;;;;;11.49;55.49;98371.72;3495245;28;20038;-73
2021/11/08 04:29:42;;;;;;;8.85;5.63;;;;;;;11.44;55.31;98367.09;3495256;28;20044;-72
2021/11/08 04:31:23;;;;;;;5.57;4.22;;;;;;;11.49;56.67;98363.72;3495153;28;20488;-71
2021/11/08 04:35:11;;;;;;;9.38;5.80;;;;;;;11.65;55.54;98365.69;3481288;28;20581;-71
2021/11/08 04:42:29;;;;;;;8.13;5.32;;;;;;;11.46;55.37;98367.69;3495788;28;20036;-71
2021/11/08 04:46:31;;;;;;;8.40;5.38;;;;;;;11.68;56.21;98375.06;3496096;28;20043;-73
2021/11/08 04:48:40;;;;;;;10.43;6.05;;;;;;;11.74;55.37;98368.78;3491895;28;20093;-72
2021/11/08 04:54:01;;;;;;;9.38;6.32;;;;;;;11.57;55.63;98358.84;3489623;28;20503;-72
2021/11/08 05:21:50;;;;;;;8.32;4.88;;;;;;;11.55;57.86;98333.44;3495652;28;20044;-73
2021/11/08 05:31:10;;;;;;;8.57;5.97;;;;;;;11.49;56.27;98334.38;3478645;28;20040;-73
2021/11/08 05:32:51;;;;;;;10.60;6.57;;;;;;;11.44;56.29;98326.28;3492934;28;20036;-72
2021/11/08 05:34:32;;;;;;;8.13;5.82;;;;;;;11.39;56.35;98320.81;3482143;28;20515;-73
2021/11/08 05:36:14;;;;;;;11.40;6.72;;;;;;;11.41;56.40;98326.72;3493887;28;20512;-73
2021/11/08 05:37:56;;;;;;;15.85;8.63;;;;;;;11.46;57.10;98321.47;3483451;28;20065;-72
2021/11/08 05:39:43;;;;;;;12.32;6.93;;;;;;;11.56;57.03;98319.88;3480120;28;20140;-75
2021/11/08 05:41:24;;;;;;;12.32;7.28;;;;;;;11.65;56.36;98317.63;3496536;28;20552;-77
2021/11/08 05:43:08;;;;;;;14.30;7.80;;;;;;;11.72;56.65;98313.00;3483714;28;20059;-74
2021/11/08 05:44:50;;;;;;;12.23;6.35;;;;;;;11.81;56.55;98321.44;3495322;28;20040;-76
2021/11/08 05:46:31;;;;;;;12.88;6.97;;;;;;;11.86;56.06;98326.06;3482908;28;20037;-75
2021/11/08 05:48:12;;;;;;;12.13;6.65;;;;;;;11.77;55.87;98330.94;3494653;28;20131;-78
2021/11/08 05:49:53;;;;;;;11.95;6.53;;;;;;;11.69;56.19;98313.44;3497021;28;20040;-77
2021/11/08 05:51:33;;;;;;;12.70;7.10;;;;;;;11.69;56.39;98313.44;3498435;28;20044;-76
2021/11/08 05:53:14;;;;;;;11.75;7.20;;;;;;;11.81;56.17;98328.63;3498122;28;20044;-78
2021/11/08 05:54:55;;;;;;;12.75;7.32;;;;;;;11.66;55.93;98297.09;3482406;28;20127;-75
2021/11/08 05:56:59;;;;;;;13.85;7.82;;;;;;;11.67;55.96;98314.72;3466654;28;20045;-76
2021/11/08 05:59:06;;;;;;;10.70;6.97;;;;;;;11.75;55.92;98320.53;3468900;28;20057;-77
2021/11/08 06:49:47;;;;;;;9.63;6.03;;;;;;;11.12;57.60;98302.59;3482959;28;20048;-77
2021/11/08 06:51:28;;;;;;;15.18;6.32;;;;;;;11.15;57.83;98302.13;3484956;28;20079;-76
2021/11/08 06:53:16;;;;;;;9.82;5.38;;;;;;;11.17;57.63;98300.06;3482567;28;20053;-76
2021/11/08 06:55:01;;;;;;;14.25;6.50;;;;;;;11.17;57.78;98300.06;3495764;28;20072;-76
2021/11/08 06:57:10;;;;;;;10.95;6.43;;;;;;;11.19;57.68;98302.50;3497340;28;20569;-76
2021/11/08 06:58:46;;;;;;;10.98;5.93;;;;;;;11.19;57.68;98303.31;3490672;28;20496;-77
2021/11/08 07:00:28;;;;;;;10.88;5.55;;;;;;;11.19;57.71;98307.84;3474460;28;20037;-76
2021/11/08 07:02:09;;;;;;;13.45;5.93;;;;;;;11.18;57.70;98299.03;3480546;28;20052;-76
2021/11/08 07:03:49;;;;;;;10.57;6.00;;;;;;;11.23;58.19;98295.63;3483161;28;20047;-76
2021/11/08 07:05:30;;;;;;;8.63;5.28;;;;;;;11.26;57.97;98292.53;3483359;28;20048;-76
2021/11/08 07:07:11;;;;;;;7.40;5.28;;;;;;;11.28;57.77;98296.59;3483770;28;20044;-79
2021/11/08 07:08:52;;;;;;;7.88;5.25;;;;;;;11.29;57.71;98300.88;3468807;28;20037;-77
2021/11/08 07:10:33;;;;;;;10.20;5.65;;;;;;;11.28;57.99;98290.41;3490114;28;20032;-76
2021/11/08 07:12:15;;;;;;;8.37;5.33;;;;;;;11.29;57.85;98297.41;3482486;28;20512;-76
2021/11/08 07:13:56;;;;;;;9.25;4.25;;;;;;;11.34;58.00;98297.50;3494371;28;20059;-75
2021/11/08 07:15:36;;;;;;;5.47;3.90;;;;;;;11.42;57.95;98286.47;3497381;28;20413;-77
2021/11/08 07:17:17;;;;;;;5.68;4.05;;;;;;;11.54;57.80;98291.81;3497143;28;20435;-75
2021/11/08 07:18:58;;;;;;;7.35;4.78;;;;;;;11.57;57.41;98299.31;3477714;28;20474;-76
2021/11/08 07:20:38;;;;;;;7.05;4.95;;;;;;;11.50;57.40;98294.09;3481370;28;20090;-75
2021/11/08 07:22:19;;;;;;;4.93;4.03;;;;;;;11.45;57.58;98295.88;3479284;28;20045;-76
2021/11/08 07:24:00;;;;;;;6.32;4.47;;;;;;;11.43;57.56;98295.28;3485842;28;20037;-75
2021/11/08 07:25:42;;;;;;;5.93;4.22;;;;;;;11.32;57.64;98291.59;3490311;28;20133;-75
2021/11/08 07:27:23;;;;;;;4.18;3.50;;;;;;;11.30;57.93;98291.81;3487337;28;20104;-78
2021/11/08 07:29:05;;;;;;;6.35;3.97;;;;;;;11.38;58.16;98285.31;3468849;28;20065;-76
2021/11/08 07:30:47;;;;;;;7.63;3.58;;;;;;;11.43;57.77;98292.63;3485188;28;20518;-77
2021/11/08 07:32:27;;;;;;;;;;;;;;;11.56;57.62;98279.00;3489093;28;20037;-76
2021/11/08 07:34:08;;;;;;;5.88;3.53;;;;;;;11.57;57.63;98289.47;3483900;28;20350;-76
2021/11/08 07:35:49;;;;;;;10.07;3.92;;;;;;;11.55;57.42;98288.06;3483551;28;20132;-76
2021/11/08 07:37:31;;;;;;;5.60;3.53;;;;;;;11.48;57.32;98290.06;3486762;28;20080;-76
2021/11/08 07:39:12;;;;;;;3.25;2.88;;;;;;;11.42;57.81;98281.13;3483577;28;20179;-76
2021/11/08 07:40:53;;;;;;;6.03;3.30;;;;;;;11.42;57.83;98286.47;3485219;28;20037;-75
2021/11/08 07:42:34;;;;;;;6.75;3.97;;;;;;;11.35;57.80;98291.13;3494277;28;20062;-76
2021/11/08 07:44:15;;;;;;;4.57;3.78;;;;;;;11.31;57.85;98293.44;3497462;28;20475;-76
2021/11/08 07:45:56;;;;;;;9.05;3.90;;;;;;;11.26;57.86;98287.19;3497247;28;20054;-75
2021/11/08 07:47:37;;;;;;;6.15;3.97;;;;;;;11.22;57.97;98289.50;3496790;28;20095;-76
2021/11/08 07:49:18;;;;;;;6.45;3.80;;;;;;;11.21;57.94;98285.22;3496968;28;20113;-76
2021/11/08 07:50:58;;;;;;;4.03;2.85;;;;;;;11.17;57.91;98283.25;3496726;28;20040;-77
2021/11/08 07:52:39;;;;;;;6.15;3.40;;;;;;;11.13;58.02;98277.59;3496757;28;20064;-76
2021/11/08 07:54:20;;;;;;;4.82;3.50;;;;;;;11.09;58.54;98285.22;3497151;28;20056;-75
2021/11/08 07:56:01;;;;;;;5.05;3.28;;;;;;;11.06;58.19;98282.22;3497061;28;20048;-75
2021/11/08 07:57:41;;;;;;;7.40;3.33;;;;;;;11.06;58.34;98282.22;3494373;28;20044;-76
2021/11/08 07:59:25;;;;;;;4.72;3.10;;;;;;;11.11;58.21;98290.34;3495442;28;20492;-75
2021/11/08 08:01:06;;;;;;;4.38;3.13;;;;;;;11.13;58.05;98282.91;3482060;28;20036;-76
2021/11/08 08:02:49;;;;;;;6.45;3.33;;;;;;;11.08;58.18;98272.13;3481534;28;20041;-76
2021/11/08 08:04:30;;;;;;;5.72;2.83;;;;;;;11.06;58.22;98282.22;3481856;28;20508;-76
2021/11/08 08:06:11;;;;;;;4.63;3.00;;;;;;;11.06;58.20;98279.56;3492299;28;20032;-76
2021/11/08 08:07:51;;;;;;;5.18;3.78;;;;;;;11.04;58.34;98279.78;3481174;28;20482;-76
2021/11/08 08:09:32;;;;;;;6.72;4.10;;;;;;;11.06;58.17;98261.69;3492993;28;20047;-77
2021/11/08 08:11:13;;;;;;;3.30;2.53;;;;;;;11.14;58.38;98265.88;3481010;28;20051;-77
2021/11/08 08:12:54;;;;;;;3.92;3.15;;;;;;;11.20;58.25;98272.13;3488847;28;20167;-74
2021/11/08 08:14:35;;;;;;;4.63;3.70;;;;;;;11.21;58.11;98274.56;3485536;28;20091;-75
2021/11/08 08:16:18;;;;;;;4.75;3.35;;;;;;;11.23;58.04;98271.63;3486338;28;20045;-75
2021/11/08 08:17:59;;;;;;;7.25;3.63;;;;;;;11.27;57.80;98276.28;3483732;28;20081;-76
2021/11/08 08:19:41;;;;;;;6.63;3.08;;;;;;;11.28;58.00;98266.41;3482714;28;20045;-76
2021/11/08 08:21:22;;;;;;;6.22;3.95;;;;;;;11.34;58.00;98257.50;3495500;28;20037;-75
2021/11/08 08:23:04;;;;;;;6.32;3.70;;;;;;;11.41;57.61;98257.34;3486156;28;20033;-75
2021/11/08 08:24:44;;;;;;;4.07;3.17;;;;;;;11.40;57.58;98253.88;3495670;28;20051;-76
2021/11/08 08:26:28;;;;;;;6.75;3.17;;;;;;;11.44;57.89;98256.91;3496566;28;20044;-77
2021/11/08 08:28:08;;;;;;;4.72;3.17;;;;;;;11.48;57.88;98263.38;3496349;28;20041;-76
2021/11/08 08:29:51;;;;;;;4.90;3.90;;;;;;;11.59;57.68;98262.56;3481507;28;20049;-78
2021/11/08 08:31:33;;;;;;;4.70;4.00;;;;;;;11.56;57.41;98253.16;3487612;28;20062;-76
2021/11/08 08:33:13;;;;;;;4.32;3.65;;;;;;;11.51;57.56;98249.56;3496141;28;20460;-76
2021/11/08 08:34:55;;;;;;;8.00;4.05;;;;;;;11.46;57.38;98255.63;3494437;28;20048;-75
2021/11/08 08:36:37;;;;;;;6.35;3.60;;;;;;;11.41;57.65;98258.19;3498236;28;20052;-75
2021/11/08 08:38:18;;;;;;;4.20;3.53;;;;;;;11.41;57.58;98252.00;3493457;28;20527;-76
2021/11/08 08:39:59;;;;;;;7.13;3.38;;;;;;;11.41;57.62;98244.84;3493720;28;20033;-76
2021/11/08 08:41:42;;;;;;;6.60;4.25;;;;;;;11.41;57.45;98247.50;3497419;28;20429;-76
2021/11/08 08:43:24;;;;;;;9.23;4.05;;;;;;;11.40;57.52;98250.41;3494536;28;20547;-77
2021/11/08 08:45:06;;;;;;;5.40;3.75;;;;;;;11.38;57.53;98244.50;3490778;28;20524;-77
2021/11/08 08:46:49;;;;;;;7.78;3.83;;;;;;;11.33;57.69;98238.03;3490663;28;20105;-77
2021/11/08 08:48:31;;;;;;;5.18;4.05;;;;;;;11.39;57.74;98249.59;3493137;28;20445;-77
2021/11/08 08:50:12;;;;;;;5.72;3.97;;;;;;;11.42;57.64;98237.66;3480617;28;20037;-77
2021/11/08 08:51:53;;;;;;;4.55;3.40;;;;;;;11.42;57.58;98245.66;3490615;28;20044;-76
2021/11/08 08:53:35;;;;;;;3.92;3.58;;;;;;;11.49;57.42;98238.34;3497605;28;20040;-77
2021/11/08 08:55:16;;;;;;;7.28;4.63;;;;;;;11.49;57.48;98249.00;3499273;28;20041;-76
2021/11/08 08:56:59;;;;;;;5.60;4.35;;;;;;;11.45;57.63;98242.50;3497869;28;20547;-76
2021/11/08 08:58:40;;;;;;;9.25;5.47;;;;;;;11.42;57.63;98242.97;3494792;28;20036;-75
2021/11/08 09:00:22;;;;;;;6.90;5.13;;;;;;;11.38;57.57;98239.16;3495917;28;20124;-76
2021/11/08 09:02:04;;;;;;;5.85;4.57;;;;;;;11.35;57.55;98237.75;3480318;28;20457;-74
2021/11/08 09:03:45;;;;;;;6.78;4.72;;;;;;;11.32;57.81;98244.38;3489879;28;20044;-74
2021/11/08 09:05:27;;;;;;;6.35;4.43;;;;;;;11.26;57.85;98224.00;3477909;28;20037;-74
2021/11/08 09:07:10;;;;;;;6.60;5.03;;;;;;;11.23;57.84;98236.97;3491516;28;20076;-75
2021/11/08 09:08:52;;;;;;;5.78;4.57;;;;;;;11.18;58.01;98228.88;3493519;28;20119;-74
2021/11/08 09:10:35;;;;;;;5.28;4.18;;;;;;;11.15;57.75;98238.13;3485904;28;20045;-74
2021/11/08 09:12:16;;;;;;;5.40;4.55;;;;;;;11.10;57.91;98235.38;3483750;28;20040;-71
2021/11/08 09:14:00;;;;;;;7.13;5.53;;;;;;;11.05;58.04;98232.63;3480963;28;20090;-74
2021/11/08 09:15:42;;;;;;;6.03;4.82;;;;;;;11.01;58.11;98232.25;3466377;28;20527;-73
2021/11/08 09:17:23;;;;;;;7.47;5.10;;;;;;;10.98;58.44;98229.25;3478181;28;20032;-72
2021/11/08 09:19:05;;;;;;;5.97;4.80;;;;;;;10.90;58.50;98215.22;3479227;28;20087;-73
2021/11/08 09:20:47;;;;;;;6.93;4.93;;;;;;;10.88;58.46;98233.31;3491161;28;20062;-73
2021/11/08 09:22:28;;;;;;;;;;;;;;;10.99;58.24;98230.88;3479105;28;20044;-72
2021/11/08 09:24:09;;;;;;;5.50;3.83;;;;;;;10.86;58.36;98227.38;3490257;28;19924;-72
2021/11/08 09:25:52;;;;;;;8.10;4.70;;;;;;;10.80;58.56;98225.66;3482579;28;20053;-75
2021/11/08 09:27:33;;;;;;;9.30;5.22;;;;;;;10.80;58.69;98225.66;3480934;28;20044;-72
2021/11/08 09:29:13;;;;;;;5.22;4.45;;;;;;;10.76;58.62;98224.50;3466691;28;20033;-73
2021/11/08 09:30:55;;;;;;;8.80;5.00;;;;;;;10.73;58.75;98226.81;3466797;28;20092;-77
2021/11/08 09:32:37;;;;;;;5.63;4.35;;;;;;;10.73;58.91;98229.47;3489472;28;20190;-74
2021/11/08 09:34:22;;;;;;;8.60;4.93;;;;;;;10.70;59.05;98228.09;3485289;28;20071;-74
2021/11/08 09:36:06;;;;;;;7.97;4.90;;;;;;;10.63;59.08;98222.88;3484107;28;20041;-72
2021/11/08 09:37:48;;;;;;;6.38;4.78;;;;;;;10.62;59.23;98231.91;3481021;28;20052;-73
2021/11/08 09:39:33;;;;;;;9.70;5.00;;;;;;;10.63;59.21;98230.06;3480963;28;20053;-75
2021/11/08 09:41:17;;;;;;;5.97;4.45;;;;;;;10.59;59.39;98226.25;3471050;28;20073;-73
2021/11/08 09:42:59;;;;;;;9.15;5.18;;;;;;;10.56;59.31;98222.19;3480620;28;20353;-73
2021/11/08 09:44:40;;;;;;;7.68;5.07;;;;;;;10.56;59.37;98232.00;3466276;28;20083;-72